sensor_id;sensor_type;location;lat;lon;timestamp;temperature;humidity
10702;DHT22;5402;50.004;8.246;2024-02-26T00:01:49;7.90;99.90
10702;DHT22;5402;50.004;8.246;2024-02-26T00:04:16;7.80;99.90
10702;DHT22;5402;50.004;8.246;2024-02-26T00:06:44;7.80;99.90
10702;DHT22;5402;50.004;8.246;2024-02-26T00:09:11;7.80;99.90
10702;DHT22;5402;50.004;8.246;2024-02-26T00:11:37;7.80;99.90
10702;DHT22;5402;50.004;8.246;2024-02-26T00:14:04;7.80;99.90
10702;DHT22;5402;50.004;8.246;2024-02-26T00:16:32;7.70;99.90
10702;DHT22;5402;50.004;8.246;2024-02-26T00:18:58;7.80;99.90
10702;DHT22;5402;50.004;8.246;2024-02-26T00:21:25;7.80;99.90
10702;DHT22;5402;50.004;8.246;2024-02-26T00:23:54;7.80;99.90
10702;DHT22;5402;50.004;8.246;2024-02-26T00:26:20;7.80;99.90
10702;DHT22;5402;50.004;8.246;2024-02-26T00:28:47;7.80;99.90
10702;DHT22;5402;50.004;8.246;2024-02-26T00:31:14;7.80;99.90
10702;DHT22;5402;50.004;8.246;2024-02-26T00:33:41;7.80;99.90
10702;DHT22;5402;50.004;8.246;2024-02-26T00:36:07;7.70;99.90
10702;DHT22;5402;50.004;8.246;2024-02-26T00:38:35;7.70;99.90
10702;DHT22;5402;50.004;8.246;2024-02-26T00:41:03;7.80;99.90
10702;DHT22;5402;50.004;8.246;2024-02-26T00:43:30;7.80;99.90
10702;DHT22;5402;50.004;8.246;2024-02-26T00:45:56;7.70;99.90
10702;DHT22;5402;50.004;8.246;2024-02-26T00:48:23;7.80;99.90
10702;DHT22;5402;50.004;8.246;2024-02-26T00:50:51;7.80;99.90
10702;DHT22;5402;50.004;8.246;2024-02-26T00:53:17;7.80;99.90
10702;DHT22;5402;50.004;8.246;2024-02-26T00:55:44;7.80;99.90
10702;DHT22;5402;50.004;8.246;2024-02-26T00:58:12;7.80;99.90
10702;DHT22;5402;50.004;8.246;2024-02-26T01:00:39;7.80;99.90
10702;DHT22;5402;50.004;8.246;2024-02-26T01:03:06;7.80;99.90
10702;DHT22;5402;50.004;8.246;2024-02-26T01:05:32;7.80;99.90
10702;DHT22;5402;50.004;8.246;2024-02-26T01:08:00;8.40;99.90
10702;DHT22;5402;50.004;8.246;2024-02-26T01:10:26;7.80;99.90
10702;DHT22;5402;50.004;8.246;2024-02-26T01:12:53;7.80;99.90
10702;DHT22;5402;50.004;8.246;2024-02-26T01:15:22;7.90;99.90
10702;DHT22;5402;50.004;8.246;2024-02-26T01:17:49;7.90;99.90
10702;DHT22;5402;50.004;8.246;2024-02-26T01:20:15;8.00;99.90
10702;DHT22;5402;50.004;8.246;2024-02-26T01:22:42;7.90;99.90
10702;DHT22;5402;50.004;8.246;2024-02-26T01:25:09;8.80;99.90
10702;DHT22;5402;50.004;8.246;2024-02-26T01:27:37;7.90;99.90
10702;DHT22;5402;50.004;8.246;2024-02-26T01:30:04;7.90;99.90
10702;DHT22;5402;50.004;8.246;2024-02-26T01:32:33;7.90;99.90
10702;DHT22;5402;50.004;8.246;2024-02-26T01:35:01;7.80;99.90
10702;DHT22;5402;50.004;8.246;2024-02-26T01:37:29;7.80;99.90
10702;DHT22;5402;50.004;8.246;2024-02-26T01:39:56;7.80;99.90
10702;DHT22;5402;50.004;8.246;2024-02-26T01:42:22;8.00;99.90
10702;DHT22;5402;50.004;8.246;2024-02-26T01:44:49;7.80;99.90
10702;DHT22;5402;50.004;8.246;2024-02-26T01:47:16;7.80;99.90
10702;DHT22;5402;50.004;8.246;2024-02-26T01:49:44;7.80;99.90
10702;DHT22;5402;50.004;8.246;2024-02-26T01:52:11;7.80;99.90
10702;DHT22;5402;50.004;8.246;2024-02-26T01:54:38;7.80;99.90
10702;DHT22;5402;50.004;8.246;2024-02-26T01:57:06;7.80;99.90
10702;DHT22;5402;50.004;8.246;2024-02-26T01:59:33;7.80;99.90
10702;DHT22;5402;50.004;8.246;2024-02-26T02:02:02;7.80;99.90
10702;DHT22;5402;50.004;8.246;2024-02-26T02:04:30;7.70;99.90
10702;DHT22;5402;50.004;8.246;2024-02-26T02:07:00;7.80;99.90
10702;DHT22;5402;50.004;8.246;2024-02-26T02:09:27;7.70;99.90
10702;DHT22;5402;50.004;8.246;2024-02-26T02:11:55;7.70;99.90
10702;DHT22;5402;50.004;8.246;2024-02-26T02:14:22;7.70;99.90
10702;DHT22;5402;50.004;8.246;2024-02-26T02:16:49;7.80;99.90
10702;DHT22;5402;50.004;8.246;2024-02-26T02:19:15;7.80;99.90
10702;DHT22;5402;50.004;8.246;2024-02-26T02:21:44;7.80;99.90
10702;DHT22;5402;50.004;8.246;2024-02-26T02:24:10;7.80;99.90
10702;DHT22;5402;50.004;8.246;2024-02-26T02:26:37;7.70;99.90
10702;DHT22;5402;50.004;8.246;2024-02-26T02:29:05;7.70;99.90
10702;DHT22;5402;50.004;8.246;2024-02-26T02:31:33;7.70;99.90
10702;DHT22;5402;50.004;8.246;2024-02-26T02:34:00;7.70;99.90
10702;DHT22;5402;50.004;8.246;2024-02-26T02:36:27;7.70;99.90
10702;DHT22;5402;50.004;8.246;2024-02-26T02:38:55;7.70;99.90
10702;DHT22;5402;50.004;8.246;2024-02-26T02:41:22;7.70;99.90
10702;DHT22;5402;50.004;8.246;2024-02-26T02:43:48;7.70;99.90
10702;DHT22;5402;50.004;8.246;2024-02-26T02:46:15;8.00;99.90
10702;DHT22;5402;50.004;8.246;2024-02-26T02:48:42;7.60;99.90
10702;DHT22;5402;50.004;8.246;2024-02-26T02:51:09;7.60;99.90
10702;DHT22;5402;50.004;8.246;2024-02-26T02:53:35;7.60;99.90
10702;DHT22;5402;50.004;8.246;2024-02-26T02:56:04;7.60;99.90
10702;DHT22;5402;50.004;8.246;2024-02-26T02:58:31;7.60;99.90
10702;DHT22;5402;50.004;8.246;2024-02-26T03:00:58;7.50;99.90
10702;DHT22;5402;50.004;8.246;2024-02-26T03:03:26;7.50;99.90
10702;DHT22;5402;50.004;8.246;2024-02-26T03:05:54;7.50;99.90
10702;DHT22;5402;50.004;8.246;2024-02-26T03:08:21;7.60;99.90
10702;DHT22;5402;50.004;8.246;2024-02-26T03:10:47;7.60;99.90
10702;DHT22;5402;50.004;8.246;2024-02-26T03:13:15;7.50;99.90
10702;DHT22;5402;50.004;8.246;2024-02-26T03:15:42;7.50;99.90
10702;DHT22;5402;50.004;8.246;2024-02-26T03:18:09;7.40;99.90
10702;DHT22;5402;50.004;8.246;2024-02-26T03:20:36;7.40;99.90
10702;DHT22;5402;50.004;8.246;2024-02-26T03:23:03;7.40;99.90
10702;DHT22;5402;50.004;8.246;2024-02-26T03:25:30;7.40;99.90
10702;DHT22;5402;50.004;8.246;2024-02-26T03:27:56;7.30;99.90
10702;DHT22;5402;50.004;8.246;2024-02-26T03:30:24;7.30;99.90
10702;DHT22;5402;50.004;8.246;2024-02-26T03:32:51;7.30;99.90
10702;DHT22;5402;50.004;8.246;2024-02-26T03:35:18;7.30;99.90
10702;DHT22;5402;50.004;8.246;2024-02-26T03:37:46;7.20;99.90
10702;DHT22;5402;50.004;8.246;2024-02-26T03:40:13;7.20;99.90
10702;DHT22;5402;50.004;8.246;2024-02-26T03:42:40;7.10;99.90
10702;DHT22;5402;50.004;8.246;2024-02-26T03:45:07;7.10;99.90
10702;DHT22;5402;50.004;8.246;2024-02-26T03:47:38;7.00;99.90
10702;DHT22;5402;50.004;8.246;2024-02-26T03:50:06;7.00;99.90
10702;DHT22;5402;50.004;8.246;2024-02-26T03:52:33;6.90;99.90
10702;DHT22;5402;50.004;8.246;2024-02-26T03:55:00;6.90;99.90
10702;DHT22;5402;50.004;8.246;2024-02-26T03:57:26;6.80;99.90
10702;DHT22;5402;50.004;8.246;2024-02-26T03:59:53;6.80;99.90
10702;DHT22;5402;50.004;8.246;2024-02-26T04:02:20;6.80;99.90
10702;DHT22;5402;50.004;8.246;2024-02-26T04:04:49;6.70;99.90
10702;DHT22;5402;50.004;8.246;2024-02-26T04:07:16;6.70;99.90
10702;DHT22;5402;50.004;8.246;2024-02-26T04:09:43;6.70;99.90
10702;DHT22;5402;50.004;8.246;2024-02-26T04:12:10;6.70;99.90
10702;DHT22;5402;50.004;8.246;2024-02-26T04:14:36;6.60;99.90
10702;DHT22;5402;50.004;8.246;2024-02-26T04:17:03;6.60;99.90
10702;DHT22;5402;50.004;8.246;2024-02-26T04:19:30;6.60;99.90
10702;DHT22;5402;50.004;8.246;2024-02-26T04:21:58;6.50;99.90
10702;DHT22;5402;50.004;8.246;2024-02-26T04:24:26;6.50;99.90
10702;DHT22;5402;50.004;8.246;2024-02-26T04:26:52;6.50;99.90
10702;DHT22;5402;50.004;8.246;2024-02-26T04:29:19;6.40;99.90
10702;DHT22;5402;50.004;8.246;2024-02-26T04:31:46;6.40;99.90
10702;DHT22;5402;50.004;8.246;2024-02-26T04:34:13;6.30;99.90
10702;DHT22;5402;50.004;8.246;2024-02-26T04:36:40;6.30;99.90
10702;DHT22;5402;50.004;8.246;2024-02-26T04:39:09;6.50;99.90
10702;DHT22;5402;50.004;8.246;2024-02-26T04:41:36;6.10;99.90
10702;DHT22;5402;50.004;8.246;2024-02-26T04:44:03;6.10;99.90
10702;DHT22;5402;50.004;8.246;2024-02-26T04:46:30;6.10;99.90
10702;DHT22;5402;50.004;8.246;2024-02-26T04:48:56;6.10;99.90
10702;DHT22;5402;50.004;8.246;2024-02-26T04:51:24;6.10;99.90
10702;DHT22;5402;50.004;8.246;2024-02-26T04:53:50;6.00;99.90
10702;DHT22;5402;50.004;8.246;2024-02-26T04:56:20;6.60;99.90
10702;DHT22;5402;50.004;8.246;2024-02-26T04:58:47;6.00;99.90
10702;DHT22;5402;50.004;8.246;2024-02-26T05:01:13;6.00;99.90
10702;DHT22;5402;50.004;8.246;2024-02-26T05:03:41;6.00;99.90
10702;DHT22;5402;50.004;8.246;2024-02-26T05:06:08;6.00;99.90
10702;DHT22;5402;50.004;8.246;2024-02-26T05:08:35;6.00;99.90
10702;DHT22;5402;50.004;8.246;2024-02-26T05:11:04;6.00;99.90
10702;DHT22;5402;50.004;8.246;2024-02-26T05:13:32;6.00;99.90
10702;DHT22;5402;50.004;8.246;2024-02-26T05:15:58;5.90;99.90
10702;DHT22;5402;50.004;8.246;2024-02-26T05:18:25;5.90;99.90
10702;DHT22;5402;50.004;8.246;2024-02-26T05:20:52;5.90;99.90
10702;DHT22;5402;50.004;8.246;2024-02-26T05:23:19;5.90;99.90
10702;DHT22;5402;50.004;8.246;2024-02-26T05:25:45;5.90;99.90
10702;DHT22;5402;50.004;8.246;2024-02-26T05:28:13;5.90;99.90
10702;DHT22;5402;50.004;8.246;2024-02-26T05:30:42;5.90;99.90
10702;DHT22;5402;50.004;8.246;2024-02-26T05:33:09;5.90;99.90
10702;DHT22;5402;50.004;8.246;2024-02-26T05:35:36;5.90;99.90
10702;DHT22;5402;50.004;8.246;2024-02-26T05:38:03;5.90;99.90
10702;DHT22;5402;50.004;8.246;2024-02-26T05:40:30;5.90;99.90
10702;DHT22;5402;50.004;8.246;2024-02-26T05:42:56;5.90;99.90
10702;DHT22;5402;50.004;8.246;2024-02-26T05:45:23;5.90;99.90
10702;DHT22;5402;50.004;8.246;2024-02-26T05:47:51;5.90;99.90
10702;DHT22;5402;50.004;8.246;2024-02-26T05:50:18;5.90;99.90
10702;DHT22;5402;50.004;8.246;2024-02-26T05:52:45;5.80;99.90
10702;DHT22;5402;50.004;8.246;2024-02-26T05:55:12;5.90;99.90
10702;DHT22;5402;50.004;8.246;2024-02-26T05:57:39;5.90;99.90
10702;DHT22;5402;50.004;8.246;2024-02-26T06:00:07;5.90;99.90
10702;DHT22;5402;50.004;8.246;2024-02-26T06:02:33;5.90;99.90
10702;DHT22;5402;50.004;8.246;2024-02-26T06:05:02;5.90;99.90
10702;DHT22;5402;50.004;8.246;2024-02-26T06:07:29;5.80;99.90
10702;DHT22;5402;50.004;8.246;2024-02-26T06:09:55;5.80;99.90
10702;DHT22;5402;50.004;8.246;2024-02-26T06:12:22;5.80;99.90
10702;DHT22;5402;50.004;8.246;2024-02-26T06:14:49;5.70;99.90
10702;DHT22;5402;50.004;8.246;2024-02-26T06:17:16;5.70;99.90
10702;DHT22;5402;50.004;8.246;2024-02-26T06:19:42;5.70;99.90
10702;DHT22;5402;50.004;8.246;2024-02-26T06:22:10;5.70;99.90
10702;DHT22;5402;50.004;8.246;2024-02-26T06:24:37;5.70;99.90
10702;DHT22;5402;50.004;8.246;2024-02-26T06:27:04;5.70;99.90
10702;DHT22;5402;50.004;8.246;2024-02-26T06:29:31;5.70;99.90
10702;DHT22;5402;50.004;8.246;2024-02-26T06:31:58;5.70;99.90
10702;DHT22;5402;50.004;8.246;2024-02-26T06:34:24;5.60;99.90
10702;DHT22;5402;50.004;8.246;2024-02-26T06:36:51;5.60;99.90
10702;DHT22;5402;50.004;8.246;2024-02-26T06:39:19;5.60;99.90
10702;DHT22;5402;50.004;8.246;2024-02-26T06:41:46;5.60;99.90
10702;DHT22;5402;50.004;8.246;2024-02-26T06:44:13;5.60;99.90
10702;DHT22;5402;50.004;8.246;2024-02-26T06:46:40;5.60;99.90
10702;DHT22;5402;50.004;8.246;2024-02-26T06:49:07;5.60;99.90
10702;DHT22;5402;50.004;8.246;2024-02-26T06:51:33;5.60;99.90
10702;DHT22;5402;50.004;8.246;2024-02-26T06:54:00;5.60;99.90
10702;DHT22;5402;50.004;8.246;2024-02-26T06:56:28;5.60;99.90
10702;DHT22;5402;50.004;8.246;2024-02-26T06:58:55;5.60;99.90
10702;DHT22;5402;50.004;8.246;2024-02-26T07:01:21;5.60;99.90
10702;DHT22;5402;50.004;8.246;2024-02-26T07:03:48;5.60;99.90
10702;DHT22;5402;50.004;8.246;2024-02-26T07:06:15;5.60;99.90
10702;DHT22;5402;50.004;8.246;2024-02-26T07:08:41;5.60;99.90
10702;DHT22;5402;50.004;8.246;2024-02-26T07:11:08;5.60;99.90
10702;DHT22;5402;50.004;8.246;2024-02-26T07:13:36;5.60;99.90
10702;DHT22;5402;50.004;8.246;2024-02-26T07:16:04;5.60;99.90
10702;DHT22;5402;50.004;8.246;2024-02-26T07:18:31;5.60;99.90
10702;DHT22;5402;50.004;8.246;2024-02-26T07:20:57;5.60;99.90
10702;DHT22;5402;50.004;8.246;2024-02-26T07:23:24;5.60;99.90
10702;DHT22;5402;50.004;8.246;2024-02-26T07:25:51;5.60;99.90
10702;DHT22;5402;50.004;8.246;2024-02-26T07:28:18;5.60;99.90
10702;DHT22;5402;50.004;8.246;2024-02-26T07:30:46;5.60;99.90
10702;DHT22;5402;50.004;8.246;2024-02-26T07:33:13;5.70;99.90
10702;DHT22;5402;50.004;8.246;2024-02-26T07:35:40;5.70;99.90
10702;DHT22;5402;50.004;8.246;2024-02-26T07:38:07;5.70;99.90
10702;DHT22;5402;50.004;8.246;2024-02-26T07:40:34;5.70;99.90
10702;DHT22;5402;50.004;8.246;2024-02-26T07:43:01;5.70;99.90
10702;DHT22;5402;50.004;8.246;2024-02-26T07:45:28;5.70;99.90
10702;DHT22;5402;50.004;8.246;2024-02-26T07:47:56;5.70;99.90
10702;DHT22;5402;50.004;8.246;2024-02-26T07:50:23;5.70;99.90
10702;DHT22;5402;50.004;8.246;2024-02-26T07:52:49;5.70;99.90
10702;DHT22;5402;50.004;8.246;2024-02-26T07:55:16;5.70;99.90
10702;DHT22;5402;50.004;8.246;2024-02-26T07:57:44;5.70;99.90
10702;DHT22;5402;50.004;8.246;2024-02-26T08:00:12;5.70;99.90
10702;DHT22;5402;50.004;8.246;2024-02-26T08:02:42;5.80;99.90
10702;DHT22;5402;50.004;8.246;2024-02-26T08:05:10;5.80;99.90
10702;DHT22;5402;50.004;8.246;2024-02-26T08:07:37;5.80;99.90
10702;DHT22;5402;50.004;8.246;2024-02-26T08:10:04;5.80;99.90
10702;DHT22;5402;50.004;8.246;2024-02-26T08:12:30;5.80;99.90
10702;DHT22;5402;50.004;8.246;2024-02-26T08:14:57;5.80;99.90
10702;DHT22;5402;50.004;8.246;2024-02-26T08:17:24;5.70;99.90
10702;DHT22;5402;50.004;8.246;2024-02-26T08:19:52;5.70;99.90
10702;DHT22;5402;50.004;8.246;2024-02-26T08:22:20;5.80;99.90
10702;DHT22;5402;50.004;8.246;2024-02-26T08:24:47;5.80;99.90
10702;DHT22;5402;50.004;8.246;2024-02-26T08:27:14;5.80;99.90
10702;DHT22;5402;50.004;8.246;2024-02-26T08:29:41;5.90;99.90
10702;DHT22;5402;50.004;8.246;2024-02-26T08:32:07;5.90;99.90
10702;DHT22;5402;50.004;8.246;2024-02-26T08:34:34;5.90;99.90
10702;DHT22;5402;50.004;8.246;2024-02-26T08:37:01;5.90;99.90
10702;DHT22;5402;50.004;8.246;2024-02-26T08:39:29;5.90;99.90
10702;DHT22;5402;50.004;8.246;2024-02-26T08:41:55;6.00;99.90
10702;DHT22;5402;50.004;8.246;2024-02-26T08:44:22;6.10;99.90
10702;DHT22;5402;50.004;8.246;2024-02-26T08:46:49;6.00;99.90
10702;DHT22;5402;50.004;8.246;2024-02-26T08:49:16;6.10;99.90
10702;DHT22;5402;50.004;8.246;2024-02-26T08:51:43;6.10;99.90
10702;DHT22;5402;50.004;8.246;2024-02-26T08:54:09;6.20;99.90
10702;DHT22;5402;50.004;8.246;2024-02-26T08:56:37;6.20;99.90
10702;DHT22;5402;50.004;8.246;2024-02-26T08:59:04;6.20;99.90
10702;DHT22;5402;50.004;8.246;2024-02-26T09:01:31;6.10;99.90
10702;DHT22;5402;50.004;8.246;2024-02-26T09:03:58;6.20;99.90
10702;DHT22;5402;50.004;8.246;2024-02-26T09:06:25;6.20;99.90
10702;DHT22;5402;50.004;8.246;2024-02-26T09:08:51;6.20;99.90
10702;DHT22;5402;50.004;8.246;2024-02-26T09:11:18;6.30;99.90
10702;DHT22;5402;50.004;8.246;2024-02-26T09:13:46;6.30;99.90
10702;DHT22;5402;50.004;8.246;2024-02-26T09:16:13;6.30;99.90
10702;DHT22;5402;50.004;8.246;2024-02-26T09:18:41;6.40;99.90
10702;DHT22;5402;50.004;8.246;2024-02-26T09:21:08;6.40;99.90
10702;DHT22;5402;50.004;8.246;2024-02-26T09:23:35;6.30;99.90
10702;DHT22;5402;50.004;8.246;2024-02-26T09:26:02;6.40;99.90
10702;DHT22;5402;50.004;8.246;2024-02-26T09:28:29;6.40;99.90
10702;DHT22;5402;50.004;8.246;2024-02-26T09:31:01;6.40;99.90
10702;DHT22;5402;50.004;8.246;2024-02-26T09:33:28;6.40;99.90
10702;DHT22;5402;50.004;8.246;2024-02-26T09:35:55;6.40;99.90
10702;DHT22;5402;50.004;8.246;2024-02-26T09:38:21;6.40;99.90
10702;DHT22;5402;50.004;8.246;2024-02-26T09:40:49;6.30;99.90
10702;DHT22;5402;50.004;8.246;2024-02-26T09:43:17;6.30;99.90
10702;DHT22;5402;50.004;8.246;2024-02-26T09:45:47;6.50;99.90
10702;DHT22;5402;50.004;8.246;2024-02-26T09:48:18;6.40;99.90
10702;DHT22;5402;50.004;8.246;2024-02-26T09:50:44;6.60;99.90
10702;DHT22;5402;50.004;8.246;2024-02-26T09:53:12;6.60;99.90
10702;DHT22;5402;50.004;8.246;2024-02-26T09:55:40;6.70;99.90
10702;DHT22;5402;50.004;8.246;2024-02-26T09:58:07;6.80;99.90
10702;DHT22;5402;50.004;8.246;2024-02-26T10:00:37;6.80;99.90
10702;DHT22;5402;50.004;8.246;2024-02-26T10:03:05;6.70;99.90
10702;DHT22;5402;50.004;8.246;2024-02-26T10:05:34;6.60;99.90
10702;DHT22;5402;50.004;8.246;2024-02-26T10:08:02;6.60;99.90
10702;DHT22;5402;50.004;8.246;2024-02-26T10:10:29;6.50;99.90
10702;DHT22;5402;50.004;8.246;2024-02-26T10:12:57;6.80;99.90
10702;DHT22;5402;50.004;8.246;2024-02-26T10:15:24;6.80;99.90
10702;DHT22;5402;50.004;8.246;2024-02-26T10:17:51;6.90;99.90
10702;DHT22;5402;50.004;8.246;2024-02-26T10:20:18;6.80;99.90
10702;DHT22;5402;50.004;8.246;2024-02-26T10:22:48;6.90;99.90
10702;DHT22;5402;50.004;8.246;2024-02-26T10:25:15;7.00;99.90
10702;DHT22;5402;50.004;8.246;2024-02-26T10:27:45;7.10;99.90
10702;DHT22;5402;50.004;8.246;2024-02-26T10:30:17;7.10;99.90
10702;DHT22;5402;50.004;8.246;2024-02-26T10:32:45;7.20;99.90
10702;DHT22;5402;50.004;8.246;2024-02-26T10:35:12;7.20;99.90
10702;DHT22;5402;50.004;8.246;2024-02-26T10:37:40;7.10;99.90
10702;DHT22;5402;50.004;8.246;2024-02-26T10:40:10;7.00;99.90
10702;DHT22;5402;50.004;8.246;2024-02-26T10:42:36;7.20;99.90
10702;DHT22;5402;50.004;8.246;2024-02-26T10:45:04;7.20;99.90
10702;DHT22;5402;50.004;8.246;2024-02-26T10:47:31;7.30;99.90
10702;DHT22;5402;50.004;8.246;2024-02-26T10:50:00;7.40;99.90
10702;DHT22;5402;50.004;8.246;2024-02-26T10:52:28;7.40;99.90
10702;DHT22;5402;50.004;8.246;2024-02-26T10:55:00;7.30;99.90
10702;DHT22;5402;50.004;8.246;2024-02-26T10:57:33;7.30;99.90
10702;DHT22;5402;50.004;8.246;2024-02-26T11:00:00;7.30;99.90
10702;DHT22;5402;50.004;8.246;2024-02-26T11:02:31;7.40;99.90
10702;DHT22;5402;50.004;8.246;2024-02-26T11:04:58;7.40;99.90
10702;DHT22;5402;50.004;8.246;2024-02-26T11:07:26;7.50;99.90
10702;DHT22;5402;50.004;8.246;2024-02-26T11:09:55;7.50;99.90
10702;DHT22;5402;50.004;8.246;2024-02-26T11:12:23;7.50;99.90
10702;DHT22;5402;50.004;8.246;2024-02-26T11:14:52;7.50;99.90
10702;DHT22;5402;50.004;8.246;2024-02-26T11:17:22;7.50;99.90
10702;DHT22;5402;50.004;8.246;2024-02-26T11:19:50;7.40;99.90
10702;DHT22;5402;50.004;8.246;2024-02-26T11:22:17;7.50;99.90
10702;DHT22;5402;50.004;8.246;2024-02-26T11:24:44;7.60;99.90
10702;DHT22;5402;50.004;8.246;2024-02-26T11:27:11;7.70;99.90
10702;DHT22;5402;50.004;8.246;2024-02-26T11:29:42;7.70;99.90
10702;DHT22;5402;50.004;8.246;2024-02-26T11:32:11;7.70;99.90
10702;DHT22;5402;50.004;8.246;2024-02-26T11:34:38;7.70;99.90
10702;DHT22;5402;50.004;8.246;2024-02-26T11:37:11;7.80;99.90
10702;DHT22;5402;50.004;8.246;2024-02-26T11:39:40;7.70;99.90
10702;DHT22;5402;50.004;8.246;2024-02-26T11:42:07;7.80;99.90
10702;DHT22;5402;50.004;8.246;2024-02-26T11:44:34;7.80;99.90
10702;DHT22;5402;50.004;8.246;2024-02-26T11:47:11;7.80;99.90
10702;DHT22;5402;50.004;8.246;2024-02-26T11:49:38;7.90;99.90
10702;DHT22;5402;50.004;8.246;2024-02-26T11:52:06;7.90;99.90
10702;DHT22;5402;50.004;8.246;2024-02-26T11:54:46;8.00;99.90
10702;DHT22;5402;50.004;8.246;2024-02-26T11:57:21;8.20;99.90
10702;DHT22;5402;50.004;8.246;2024-02-26T11:59:47;8.30;99.90
10702;DHT22;5402;50.004;8.246;2024-02-26T12:02:43;8.80;99.90
10702;DHT22;5402;50.004;8.246;2024-02-26T12:05:12;8.30;99.90
10702;DHT22;5402;50.004;8.246;2024-02-26T12:07:46;8.40;99.90
10702;DHT22;5402;50.004;8.246;2024-02-26T12:10:24;8.50;99.90
10702;DHT22;5402;50.004;8.246;2024-02-26T12:13:04;8.40;99.90
10702;DHT22;5402;50.004;8.246;2024-02-26T12:15:35;8.30;99.90
10702;DHT22;5402;50.004;8.246;2024-02-26T12:18:05;8.30;99.90
10702;DHT22;5402;50.004;8.246;2024-02-26T12:20:33;8.30;99.90
10702;DHT22;5402;50.004;8.246;2024-02-26T12:23:02;8.40;99.90
10702;DHT22;5402;50.004;8.246;2024-02-26T12:25:29;8.50;99.90
10702;DHT22;5402;50.004;8.246;2024-02-26T12:27:57;8.60;99.90
10702;DHT22;5402;50.004;8.246;2024-02-26T12:30:24;8.70;99.90
10702;DHT22;5402;50.004;8.246;2024-02-26T12:32:52;8.50;99.90
10702;DHT22;5402;50.004;8.246;2024-02-26T12:35:24;8.50;99.90
10702;DHT22;5402;50.004;8.246;2024-02-26T12:37:53;8.60;99.90
10702;DHT22;5402;50.004;8.246;2024-02-26T12:40:20;8.60;99.90
10702;DHT22;5402;50.004;8.246;2024-02-26T12:42:47;8.60;99.90
10702;DHT22;5402;50.004;8.246;2024-02-26T12:45:15;8.60;99.90
10702;DHT22;5402;50.004;8.246;2024-02-26T12:47:42;8.70;99.90
10702;DHT22;5402;50.004;8.246;2024-02-26T12:50:11;8.60;99.90
10702;DHT22;5402;50.004;8.246;2024-02-26T12:52:40;8.60;99.90
10702;DHT22;5402;50.004;8.246;2024-02-26T12:55:08;8.50;99.90
10702;DHT22;5402;50.004;8.246;2024-02-26T12:57:37;8.60;99.90
10702;DHT22;5402;50.004;8.246;2024-02-26T13:00:05;8.50;99.90
10702;DHT22;5402;50.004;8.246;2024-02-26T13:02:35;8.50;99.90
10702;DHT22;5402;50.004;8.246;2024-02-26T13:05:03;8.40;99.90
10702;DHT22;5402;50.004;8.246;2024-02-26T13:07:30;8.40;99.90
10702;DHT22;5402;50.004;8.246;2024-02-26T13:09:59;8.60;99.90
10702;DHT22;5402;50.004;8.246;2024-02-26T13:12:26;8.60;99.90
10702;DHT22;5402;50.004;8.246;2024-02-26T13:15:03;8.70;99.90
10702;DHT22;5402;50.004;8.246;2024-02-26T13:17:31;8.80;99.90
10702;DHT22;5402;50.004;8.246;2024-02-26T13:19:58;8.80;99.90
10702;DHT22;5402;50.004;8.246;2024-02-26T13:22:25;8.80;99.90
10702;DHT22;5402;50.004;8.246;2024-02-26T13:24:55;8.90;99.90
10702;DHT22;5402;50.004;8.246;2024-02-26T13:27:24;8.90;99.90
10702;DHT22;5402;50.004;8.246;2024-02-26T13:30:05;8.90;99.90
10702;DHT22;5402;50.004;8.246;2024-02-26T13:32:33;8.80;99.90
10702;DHT22;5402;50.004;8.246;2024-02-26T13:35:09;8.90;99.90
10702;DHT22;5402;50.004;8.246;2024-02-26T13:37:36;9.00;99.90
10702;DHT22;5402;50.004;8.246;2024-02-26T13:40:05;9.10;99.90
10702;DHT22;5402;50.004;8.246;2024-02-26T13:42:34;9.20;99.90
10702;DHT22;5402;50.004;8.246;2024-02-26T13:45:01;9.30;99.90
10702;DHT22;5402;50.004;8.246;2024-02-26T13:47:28;9.30;99.90
10702;DHT22;5402;50.004;8.246;2024-02-26T13:49:55;9.30;99.90
10702;DHT22;5402;50.004;8.246;2024-02-26T13:52:22;9.30;99.90
10702;DHT22;5402;50.004;8.246;2024-02-26T13:54:49;9.30;99.90
10702;DHT22;5402;50.004;8.246;2024-02-26T13:57:16;9.30;99.90
10702;DHT22;5402;50.004;8.246;2024-02-26T13:59:45;9.40;99.90
10702;DHT22;5402;50.004;8.246;2024-02-26T14:02:12;9.30;99.90
10702;DHT22;5402;50.004;8.246;2024-02-26T14:04:40;9.30;99.90
10702;DHT22;5402;50.004;8.246;2024-02-26T14:07:07;9.20;99.90
10702;DHT22;5402;50.004;8.246;2024-02-26T14:09:35;9.20;99.90
10702;DHT22;5402;50.004;8.246;2024-02-26T14:12:02;9.00;99.90
10702;DHT22;5402;50.004;8.246;2024-02-26T14:14:28;9.00;99.90
10702;DHT22;5402;50.004;8.246;2024-02-26T14:16:59;9.00;99.90
10702;DHT22;5402;50.004;8.246;2024-02-26T14:19:27;9.40;99.90
10702;DHT22;5402;50.004;8.246;2024-02-26T14:21:54;9.70;99.90
10702;DHT22;5402;50.004;8.246;2024-02-26T14:24:20;9.10;99.90
10702;DHT22;5402;50.004;8.246;2024-02-26T14:26:47;9.10;99.90
10702;DHT22;5402;50.004;8.246;2024-02-26T14:29:14;9.10;99.90
10702;DHT22;5402;50.004;8.246;2024-02-26T14:31:42;9.00;99.90
10702;DHT22;5402;50.004;8.246;2024-02-26T14:34:09;9.00;99.90
10702;DHT22;5402;50.004;8.246;2024-02-26T14:36:36;9.00;99.90
10702;DHT22;5402;50.004;8.246;2024-02-26T14:39:03;9.00;99.90
10702;DHT22;5402;50.004;8.246;2024-02-26T14:41:30;9.00;99.90
10702;DHT22;5402;50.004;8.246;2024-02-26T14:43:57;9.00;99.90
10702;DHT22;5402;50.004;8.246;2024-02-26T14:46:23;9.00;99.90
10702;DHT22;5402;50.004;8.246;2024-02-26T14:48:50;9.10;99.90
10702;DHT22;5402;50.004;8.246;2024-02-26T14:51:18;9.20;99.90
10702;DHT22;5402;50.004;8.246;2024-02-26T14:53:45;9.20;99.90
10702;DHT22;5402;50.004;8.246;2024-02-26T14:56:11;9.20;99.90
10702;DHT22;5402;50.004;8.246;2024-02-26T14:58:38;9.20;99.90
10702;DHT22;5402;50.004;8.246;2024-02-26T15:01:05;9.20;99.90
10702;DHT22;5402;50.004;8.246;2024-02-26T15:03:32;9.30;99.90
10702;DHT22;5402;50.004;8.246;2024-02-26T15:05:59;9.20;99.90
10702;DHT22;5402;50.004;8.246;2024-02-26T15:08:27;9.30;99.90
10702;DHT22;5402;50.004;8.246;2024-02-26T15:10:54;9.30;99.90
10702;DHT22;5402;50.004;8.246;2024-02-26T15:13:20;9.40;99.90
10702;DHT22;5402;50.004;8.246;2024-02-26T15:15:47;9.30;99.90
10702;DHT22;5402;50.004;8.246;2024-02-26T15:18:14;9.30;99.90
10702;DHT22;5402;50.004;8.246;2024-02-26T15:20:42;9.30;99.90
10702;DHT22;5402;50.004;8.246;2024-02-26T15:23:09;9.40;99.90
10702;DHT22;5402;50.004;8.246;2024-02-26T15:25:38;9.40;99.90
10702;DHT22;5402;50.004;8.246;2024-02-26T15:28:06;9.30;99.90
10702;DHT22;5402;50.004;8.246;2024-02-26T15:30:35;9.40;99.90
10702;DHT22;5402;50.004;8.246;2024-02-26T15:33:02;9.40;99.90
10702;DHT22;5402;50.004;8.246;2024-02-26T15:35:29;9.40;99.90
10702;DHT22;5402;50.004;8.246;2024-02-26T15:37:56;9.40;99.90
10702;DHT22;5402;50.004;8.246;2024-02-26T15:40:23;9.40;99.90
10702;DHT22;5402;50.004;8.246;2024-02-26T15:42:51;9.30;99.90
10702;DHT22;5402;50.004;8.246;2024-02-26T15:45:21;9.40;99.90
10702;DHT22;5402;50.004;8.246;2024-02-26T15:47:51;9.30;99.90
10702;DHT22;5402;50.004;8.246;2024-02-26T15:50:18;9.40;99.90
10702;DHT22;5402;50.004;8.246;2024-02-26T15:52:44;9.40;99.90
10702;DHT22;5402;50.004;8.246;2024-02-26T15:55:12;9.40;99.90
10702;DHT22;5402;50.004;8.246;2024-02-26T15:57:41;9.40;99.90
10702;DHT22;5402;50.004;8.246;2024-02-26T16:00:12;9.40;99.90
10702;DHT22;5402;50.004;8.246;2024-02-26T16:02:39;9.50;99.90
10702;DHT22;5402;50.004;8.246;2024-02-26T16:05:08;9.50;99.90